TimeCDT,TemperatureF,Dew PointF,Humidity,Sea Level PressureIn,VisibilityMPH,Wind Direction,Wind SpeedMPH,Gust SpeedMPH,PrecipitationIn,Events,Conditions,WindDirDegrees,DateUTC
12:53 AM,55.9,48.9,77,30.18,10.0,North,5.8,-,N/A,,Clear,360,2012-10-08 05:53:00
1:53 AM,57.0,48.9,74,30.17,10.0,NNE,6.9,-,N/A,,Mostly Cloudy,30,2012-10-08 06:53:00
2:53 AM,55.0,48.0,77,30.14,10.0,East,5.8,-,N/A,,Clear,100,2012-10-08 07:53:00
3:53 AM,55.9,48.9,77,30.16,10.0,North,9.2,-,N/A,,Mostly Cloudy,350,2012-10-08 08:53:00
4:53 AM,57.0,46.0,67,30.17,10.0,NNE,10.4,-,N/A,,Overcast,20,2012-10-08 09:53:00
5:53 AM,57.0,45.0,64,30.18,10.0,NE,8.1,-,N/A,,Overcast,50,2012-10-08 10:53:00
6:53 AM,57.0,45.0,64,30.19,10.0,NNE,8.1,-,N/A,,Overcast,30,2012-10-08 11:53:00
7:53 AM,57.0,46.9,69,30.21,10.0,NNE,9.2,-,N/A,,Overcast,20,2012-10-08 12:53:00
8:53 AM,57.9,48.0,70,30.22,10.0,NNE,11.5,-,N/A,,Overcast,20,2012-10-08 13:53:00
9:53 AM,59.0,48.9,69,30.24,10.0,North,9.2,-,N/A,,Overcast,10,2012-10-08 14:53:00
10:53 AM,61.0,48.9,64,30.23,10.0,NE,9.2,-,N/A,,Overcast,50,2012-10-08 15:53:00
11:53 AM,63.0,48.9,60,30.22,10.0,North,10.4,-,N/A,,Overcast,10,2012-10-08 16:53:00
12:53 PM,66.9,48.0,51,30.20,10.0,North,11.5,18.4,N/A,,Clear,10,2012-10-08 17:53:00
1:53 PM,68.0,48.9,50,30.16,10.0,NNE,6.9,17.3,N/A,,Clear,20,2012-10-08 18:53:00
2:53 PM,71.1,50.0,47,30.14,10.0,NE,10.4,-,N/A,,Clear,50,2012-10-08 19:53:00
3:53 PM,72.0,51.1,48,30.12,10.0,NNE,5.8,-,N/A,,Clear,30,2012-10-08 20:53:00
4:53 PM,71.1,51.1,49,30.12,10.0,ENE,9.2,-,N/A,,Clear,60,2012-10-08 21:53:00
5:53 PM,70.0,51.1,51,30.12,10.0,NE,6.9,-,N/A,,Clear,40,2012-10-08 22:53:00
6:53 PM,64.9,53.1,65,30.12,10.0,NE,5.8,-,N/A,,Clear,40,2012-10-08 23:53:00
7:53 PM,62.1,53.1,72,30.13,10.0,NE,4.6,-,N/A,,Clear,50,2012-10-09 00:53:00
8:53 PM,60.8,53.6,77,30.13,10.0,NE,5.8,-,N/A,,Clear,50,2012-10-09 01:53:00
9:53 PM,57.0,52.0,83,30.16,10.0,NE,5.8,-,N/A,,Clear,40,2012-10-09 02:53:00
10:53 PM,55.9,51.1,84,30.16,10.0,NE,5.8,-,N/A,,Clear,50,2012-10-09 03:53:00
11:53 PM,55.0,51.1,86,30.15,10.0,ENE,5.8,-,N/A,,Clear,60,2012-10-09 04:53:00